Terminal Aerodrome Forecast
Issued by NWS Wilmington, NC

Home | Current Version | Previous Version | Text Only | Print | Product List | Glossary On
Versions: 1 2 3 4 5 6 7 8 9 10 11 12 13 14 15 16 17 18 19
000
FTUS42 KILM 252339
TAFMYR
TAF
KMYR 252339Z 2600/2624 20010KT P6SM VCSH SCT015 BKN025
      TEMPO 2604/2606 28008KT 3SM SHRA SCT015 SCT025 BKN060
     FM260600 25004KT 3SM BR SCT004 SCT150
     FM261000 26008KT P6SM SCT008 SCT025 BKN060
     FM262000 36010KT P6SM VCSH BKN025 BKN040
      AMD LTD TO CLD VIS AND WIND 2604/2611=

USA.gov is the U.S. government's official web portal to all federal, state and local government web resources and services.